createdAt,value
2019-03-28T00:02:17.072Z,102359.67
2019-03-28T00:04:45.679Z,102356.62
2019-03-28T00:07:14.671Z,102360.17
2019-03-28T00:09:43.387Z,102360.69
2019-03-28T00:12:12.197Z,102354.55
2019-03-28T00:14:41.014Z,102368.33
2019-03-28T00:17:09.622Z,102365.33
2019-03-28T00:19:38.201Z,102361.38
2019-03-28T00:22:06.813Z,102364.59
2019-03-28T00:24:52.774Z,102366.48
2019-03-28T00:27:22.080Z,102371.42
2019-03-28T00:29:50.905Z,102371.97
2019-03-28T00:32:19.408Z,102372.90
2019-03-28T00:34:47.982Z,102371.18
2019-03-28T00:37:16.611Z,102366.76
2019-03-28T00:39:45.189Z,102368.69
2019-03-28T00:42:13.686Z,102367.82
2019-03-28T00:44:43.290Z,102375.47
2019-03-28T00:47:12.292Z,102375.98
2019-03-28T00:49:40.864Z,102383.63
2019-03-28T00:52:09.637Z,102376.52
2019-03-28T00:54:38.487Z,102375.73
2019-03-28T00:57:07.211Z,102378.00
2019-03-28T00:59:35.779Z,102377.12
2019-03-28T01:02:04.513Z,102376.75
2019-03-28T01:04:33.276Z,102367.44
2019-03-28T01:07:01.934Z,102362.63
2019-03-28T01:09:31.329Z,102361.30
2019-03-28T01:12:00.022Z,102360.50
2019-03-28T01:14:28.608Z,102360.97
2019-03-28T01:16:58.657Z,102353.49
2019-03-28T01:19:27.433Z,102356.22
2019-03-28T01:21:56.054Z,102352.34
2019-03-28T01:24:24.672Z,102354.22
2019-03-28T01:26:57.473Z,102347.67
2019-03-28T01:29:23.638Z,102344.20
2019-03-28T01:31:52.318Z,102342.95
2019-03-28T01:34:20.894Z,102346.60
2019-03-28T01:36:49.497Z,102349.28
2019-03-28T01:39:18.076Z,102346.69
2019-03-28T01:41:46.651Z,102342.76
2019-03-28T01:44:15.334Z,102348.56
2019-03-28T01:46:44.125Z,102338.80
2019-03-28T01:49:12.768Z,102340.68
2019-03-28T01:51:41.336Z,102335.88
2019-03-28T01:54:10.015Z,102342.61
2019-03-28T01:56:38.603Z,102340.48
2019-03-28T01:59:07.279Z,102347.16
2019-03-28T02:01:35.855Z,102348.09
2019-03-28T02:04:04.644Z,102346.83
2019-03-28T02:06:33.256Z,102343.75
2019-03-28T02:09:01.886Z,102338.48
2019-03-28T02:11:30.462Z,102339.82
2019-03-28T02:13:59.484Z,102334.98
2019-03-28T02:16:28.152Z,102339.41
2019-03-28T02:18:56.736Z,102339.08
2019-03-28T02:21:25.339Z,102346.22
2019-03-28T02:23:53.929Z,102344.88
2019-03-28T02:26:22.502Z,102344.88
2019-03-28T02:28:51.362Z,102348.52
2019-03-28T02:31:20.057Z,102342.63
2019-03-28T02:33:48.749Z,102340.88
2019-03-28T02:36:17.330Z,102336.87
2019-03-28T02:38:45.956Z,102341.29
2019-03-28T02:41:14.716Z,102336.87
2019-03-28T02:43:43.362Z,102339.54
2019-03-28T02:46:12.102Z,102340.41
2019-03-28T02:48:40.752Z,102343.00
2019-03-28T02:51:09.297Z,102338.20
2019-03-28T02:53:37.994Z,102341.53
2019-03-28T02:56:06.572Z,102350.84
2019-03-28T02:58:35.168Z,102348.17
2019-03-28T03:01:04.117Z,102345.88
2019-03-28T03:03:32.851Z,102352.09
2019-03-28T03:06:01.449Z,102349.30
2019-03-28T03:08:30.092Z,102353.30
2019-03-28T03:10:58.671Z,102357.73
2019-03-28T03:13:27.278Z,102350.08
2019-03-28T03:15:56.773Z,102358.52
2019-03-28T03:18:25.718Z,102353.17
2019-03-28T03:20:54.285Z,102358.52
2019-03-28T03:23:22.895Z,102358.52
2019-03-28T03:25:51.476Z,102362.06
2019-03-28T03:28:20.092Z,102358.05
2019-03-28T03:30:48.736Z,102363.86
2019-03-28T03:33:17.410Z,102373.68
2019-03-28T03:35:45.983Z,102371.47
2019-03-28T03:38:14.821Z,102368.42
2019-03-28T03:40:43.420Z,102372.89
2019-03-28T03:43:12.075Z,102370.67
2019-03-28T03:45:40.728Z,102364.88
2019-03-28T03:48:09.534Z,102371.14
2019-03-28T03:50:38.146Z,102375.69
2019-03-28T03:53:07.506Z,102370.80
2019-03-28T03:55:36.194Z,102370.80
2019-03-28T03:58:15.690Z,102371.34
2019-03-28T04:00:36.765Z,102374.02
2019-03-28T04:03:05.427Z,102374.48
2019-03-28T04:05:34.124Z,102371.89
2019-03-28T04:08:02.716Z,102377.23
2019-03-28T04:10:31.514Z,102378.63
2019-03-28T04:13:00.566Z,102377.37
2019-03-28T04:15:29.231Z,102379.63
2019-03-28T04:17:57.818Z,102382.37
2019-03-28T04:20:26.616Z,102388.59
2019-03-28T04:22:55.275Z,102385.98
2019-03-28T04:25:23.901Z,102389.52
2019-03-28T04:27:52.488Z,102393.11
2019-03-28T04:30:21.121Z,102393.11
2019-03-28T04:32:49.702Z,102396.25
2019-03-28T04:35:18.293Z,102396.25
2019-03-28T04:37:46.880Z,102393.11
2019-03-28T04:40:15.547Z,102399.80
2019-03-28T04:42:45.983Z,102394.45
2019-03-28T04:45:15.028Z,102405.61
2019-03-28T04:47:43.609Z,102401.67
2019-03-28T04:50:12.756Z,102408.81
2019-03-28T04:52:41.339Z,102403.93
2019-03-28T04:55:10.244Z,102407.94
2019-03-28T04:57:41.004Z,102407.48
2019-03-28T05:00:10.146Z,102394.58
2019-03-28T05:02:38.729Z,102403.09
2019-03-28T05:05:08.539Z,102402.22
2019-03-28T05:07:37.187Z,102411.11
2019-03-28T05:10:10.277Z,102416.91
2019-03-28T05:12:38.923Z,102414.23
2019-03-28T05:15:09.166Z,102416.50
2019-03-28T05:17:37.845Z,102416.50
2019-03-28T05:20:07.655Z,102420.97
2019-03-28T05:22:36.241Z,102420.59
2019-03-28T05:25:05.752Z,102427.73
2019-03-28T05:27:34.390Z,102426.77
2019-03-28T05:30:06.463Z,102432.20
2019-03-28T05:32:33.818Z,102430.86
2019-03-28T05:35:02.425Z,102434.41
2019-03-28T05:37:31.123Z,102435.79
2019-03-28T05:39:59.775Z,102438.46
2019-03-28T05:42:28.401Z,102433.16
2019-03-28T05:44:56.990Z,102435.83
2019-03-28T05:47:25.745Z,102434.50
2019-03-28T05:49:54.341Z,102436.70
2019-03-28T05:52:23.004Z,102434.91
2019-03-28T05:54:51.581Z,102438.00
2019-03-28T05:57:20.436Z,102433.53
2019-03-28T05:59:49.081Z,102434.41
2019-03-28T06:02:17.932Z,102431.27
2019-03-28T06:04:46.711Z,102434.41
2019-03-28T06:07:15.225Z,102432.98
2019-03-28T06:09:44.524Z,102434.74
2019-03-28T06:12:13.553Z,102435.54
2019-03-28T06:14:42.137Z,102440.34
2019-03-28T06:17:11.306Z,102448.31
2019-03-28T06:19:40.037Z,102443.30
2019-03-28T06:22:08.611Z,102434.70
2019-03-28T06:24:37.359Z,102434.16
2019-03-28T06:27:05.966Z,102433.11
2019-03-28T06:29:34.546Z,102429.48
2019-03-28T06:32:03.226Z,102428.81
2019-03-28T06:34:32.029Z,102430.98
2019-03-28T06:37:00.605Z,102432.56
2019-03-28T06:39:29.199Z,102431.52
2019-03-28T06:41:57.778Z,102429.55
2019-03-28T06:44:26.370Z,102434.31
2019-03-28T06:46:55.323Z,102430.95
2019-03-28T06:49:24.047Z,102436.59
2019-03-28T06:51:52.723Z,102440.39
2019-03-28T06:54:24.175Z,102439.80
2019-03-28T06:56:51.620Z,102437.86
2019-03-28T06:59:20.199Z,102426.95
2019-03-28T07:01:48.909Z,102437.89
2019-03-28T07:04:17.500Z,102436.83
2019-03-28T07:06:46.086Z,102441.91
2019-03-28T07:09:14.974Z,102439.89
2019-03-28T07:11:43.593Z,102441.89
2019-03-28T07:14:12.175Z,102440.83
2019-03-28T07:16:40.760Z,102442.41
2019-03-28T07:19:09.351Z,102442.12
2019-03-28T07:21:38.395Z,102443.11
2019-03-28T07:24:06.988Z,102449.05
2019-03-28T07:26:35.635Z,102448.61
2019-03-28T07:29:04.260Z,102454.88
2019-03-28T07:31:35.507Z,102457.13
2019-03-28T07:34:03.313Z,102459.52
2019-03-28T07:36:32.490Z,102468.99
2019-03-28T07:39:01.368Z,102468.61
2019-03-28T07:41:30.631Z,102460.23
2019-03-28T07:43:59.234Z,102451.84
2019-03-28T07:46:27.907Z,102457.59
2019-03-28T07:48:56.785Z,102463.39
2019-03-28T07:51:25.373Z,102459.38
2019-03-28T07:53:53.962Z,102457.73
2019-03-28T07:56:23.271Z,102459.06
2019-03-28T07:58:52.009Z,102462.31
2019-03-28T08:01:20.624Z,102468.15
2019-03-28T08:03:49.213Z,102467.84
2019-03-28T08:06:17.813Z,102470.93
2019-03-28T08:08:46.486Z,102467.28
2019-03-28T08:11:15.096Z,102466.34
2019-03-28T08:13:43.656Z,102464.44
2019-03-28T08:16:12.249Z,102466.72
2019-03-28T08:18:40.945Z,102459.08
2019-03-28T08:21:09.551Z,102471.05
2019-03-28T08:23:38.135Z,102471.71
2019-03-28T08:26:06.719Z,102478.58
2019-03-28T08:28:35.393Z,102483.22
2019-03-28T08:31:04.589Z,102488.75
2019-03-28T08:33:34.470Z,102491.48
2019-03-28T08:36:04.023Z,102484.05
2019-03-28T08:38:34.961Z,102485.23
2019-03-28T08:41:06.895Z,102485.31
2019-03-28T08:43:35.971Z,102490.58
2019-03-28T08:46:04.147Z,102495.92
2019-03-28T08:48:33.054Z,102496.23
2019-03-28T08:51:01.764Z,102486.41
2019-03-28T08:53:30.763Z,102488.63
2019-03-28T08:55:59.605Z,102489.27
2019-03-28T08:58:28.220Z,102489.38
2019-03-28T09:00:56.807Z,102486.61
2019-03-28T09:03:25.409Z,102482.00
2019-03-28T09:05:53.993Z,102484.48
2019-03-28T09:08:22.575Z,102487.64
2019-03-28T09:10:51.398Z,102487.98
2019-03-28T09:13:19.984Z,102494.02
2019-03-28T09:15:48.568Z,102495.27
2019-03-28T09:18:17.151Z,102493.44
2019-03-28T09:20:45.829Z,102502.31
2019-03-28T09:23:14.413Z,102499.33
2019-03-28T09:25:42.992Z,102501.54
2019-03-28T09:28:11.577Z,102498.47
2019-03-28T09:30:48.954Z,102499.07
2019-03-28T09:33:12.359Z,102495.40
2019-03-28T09:35:41.183Z,102493.47
2019-03-28T09:38:09.848Z,102495.01
2019-03-28T09:40:38.711Z,102503.84
2019-03-28T09:43:07.887Z,102501.63
2019-03-28T09:45:36.671Z,102507.58
2019-03-28T09:48:05.643Z,102504.96
2019-03-28T09:50:34.229Z,102506.11
2019-03-28T09:53:02.812Z,102501.00
2019-03-28T09:55:31.392Z,102500.99
2019-03-28T09:57:59.972Z,102501.98
2019-03-28T10:00:32.575Z,102509.09
2019-03-28T10:02:59.999Z,102502.99
2019-03-28T10:05:28.980Z,102497.28
2019-03-28T10:07:57.999Z,102490.05
2019-03-28T10:10:26.668Z,102491.59
2019-03-28T10:12:55.318Z,102491.14
2019-03-28T10:15:24.669Z,102487.61
2019-03-28T10:17:53.398Z,102484.86
2019-03-28T10:20:22.056Z,102485.62
2019-03-28T10:22:51.231Z,102484.58
2019-03-28T10:25:19.868Z,102480.86
2019-03-28T10:27:48.516Z,102482.16
2019-03-28T10:30:23.308Z,102480.16
2019-03-28T10:32:52.437Z,102485.73
2019-03-28T10:35:28.548Z,102486.54
2019-03-28T10:37:57.145Z,102483.92
2019-03-28T10:40:25.932Z,102481.48
2019-03-28T10:42:54.531Z,102481.81
2019-03-28T10:45:23.114Z,102488.79
2019-03-28T10:47:52.390Z,102482.28
2019-03-28T10:50:21.019Z,102487.28
2019-03-28T10:52:49.677Z,102487.44
2019-03-28T10:55:18.285Z,102487.40
2019-03-28T10:57:46.870Z,102488.58
2019-03-28T11:00:23.900Z,102481.38
2019-03-28T11:02:46.665Z,102486.89
2019-03-28T11:05:17.965Z,102474.54
2019-03-28T11:07:46.542Z,102476.03
2019-03-28T11:10:15.224Z,102476.16
2019-03-28T11:12:44.600Z,102481.66
2019-03-28T11:15:13.318Z,102477.37
2019-03-28T11:17:42.453Z,102480.30
2019-03-28T11:20:11.772Z,102484.70
2019-03-28T11:22:40.351Z,102474.93
2019-03-28T11:25:10.335Z,102476.53
2019-03-28T11:27:38.920Z,102478.38
2019-03-28T11:30:09.786Z,102475.84
2019-03-28T11:32:38.585Z,102473.02
2019-03-28T11:35:08.369Z,102479.38
2019-03-28T11:37:37.597Z,102488.83
2019-03-28T11:40:09.305Z,102484.24
2019-03-28T11:42:38.151Z,102489.19
2019-03-28T11:45:09.591Z,102490.11
2019-03-28T11:47:38.643Z,102488.16
2019-03-28T11:50:09.219Z,102484.98
2019-03-28T11:52:37.809Z,102484.63
2019-03-28T11:55:08.892Z,102490.24
2019-03-28T11:57:38.029Z,102490.66
2019-03-28T12:00:09.882Z,102483.72
2019-03-28T12:02:38.463Z,102478.52
2019-03-28T12:05:07.682Z,102482.58
2019-03-28T12:07:36.267Z,102482.01
2019-03-28T12:10:10.927Z,102483.72
2019-03-28T12:12:39.710Z,102478.44
2019-03-28T12:15:10.001Z,102477.77
2019-03-28T12:17:38.584Z,102479.72
2019-03-28T12:20:08.473Z,102477.22
2019-03-28T12:22:37.350Z,102483.83
2019-03-28T12:25:07.682Z,102481.73
2019-03-28T12:27:36.969Z,102477.53
2019-03-28T12:30:08.245Z,102475.98
2019-03-28T12:32:36.845Z,102474.64
2019-03-28T12:35:07.147Z,102472.73
2019-03-28T12:37:36.682Z,102471.30
2019-03-28T12:40:08.540Z,102465.99
2019-03-28T12:42:37.227Z,102470.31
2019-03-28T12:45:08.852Z,102471.14
2019-03-28T12:47:42.754Z,102459.07
2019-03-28T12:50:09.830Z,102461.29
2019-03-28T12:52:38.638Z,102460.06
2019-03-28T12:55:08.048Z,102462.50
2019-03-28T12:57:36.632Z,102459.16
2019-03-28T13:00:10.215Z,102457.42
2019-03-28T13:02:38.802Z,102452.69
2019-03-28T13:05:08.615Z,102447.66
2019-03-28T13:07:37.195Z,102450.54
2019-03-28T13:10:10.768Z,102449.95
2019-03-28T13:12:39.792Z,102447.84
2019-03-28T13:15:08.993Z,102446.78
2019-03-28T13:17:37.578Z,102441.84
2019-03-28T13:20:09.371Z,102447.64
2019-03-28T13:22:38.227Z,102447.31
2019-03-28T13:25:07.821Z,102453.73
2019-03-28T13:27:36.919Z,102450.48
2019-03-28T13:30:14.147Z,102451.05
2019-03-28T13:32:43.495Z,102453.86
2019-03-28T13:35:12.356Z,102448.19
2019-03-28T13:37:40.954Z,102443.04
2019-03-28T13:40:10.500Z,102442.30
2019-03-28T13:42:39.483Z,102445.75
2019-03-28T13:45:12.035Z,102444.88
2019-03-28T13:47:40.607Z,102445.25
2019-03-28T13:50:11.085Z,102438.07
2019-03-28T13:52:39.683Z,102439.14
2019-03-28T13:55:08.488Z,102435.30
2019-03-28T13:57:37.220Z,102427.59
2019-03-28T14:00:10.639Z,102428.70
2019-03-28T14:02:40.120Z,102432.20
2019-03-28T14:05:09.362Z,102427.08
2019-03-28T14:07:37.970Z,102435.02
2019-03-28T14:10:07.869Z,102423.47
2019-03-28T14:12:36.746Z,102428.28
2019-03-28T14:15:07.143Z,102424.43
2019-03-28T14:17:35.830Z,102426.17
2019-03-28T14:20:07.536Z,102425.98
2019-03-28T14:22:36.352Z,102421.17
2019-03-28T14:25:06.576Z,102424.75
2019-03-28T14:27:35.151Z,102418.59
2019-03-28T14:30:04.757Z,102416.09
2019-03-28T14:32:33.419Z,102414.95
2019-03-28T14:35:02.060Z,102412.64
2019-03-28T14:37:30.645Z,102413.68
2019-03-28T14:39:59.308Z,102412.53
2019-03-28T14:42:28.270Z,102414.83
2019-03-28T14:44:56.952Z,102408.25
2019-03-28T14:47:25.530Z,102411.02
2019-03-28T14:49:54.311Z,102410.82
2019-03-28T14:52:22.977Z,102402.64
2019-03-28T14:54:51.564Z,102407.05
2019-03-28T14:57:21.031Z,102401.17
2019-03-28T14:59:50.720Z,102401.89
2019-03-28T15:02:19.487Z,102399.59
2019-03-28T15:04:48.132Z,102397.45
2019-03-28T15:07:16.751Z,102392.30
2019-03-28T15:09:46.121Z,102393.64
2019-03-28T15:12:14.709Z,102390.47
2019-03-28T15:14:43.371Z,102400.23
2019-03-28T15:17:11.962Z,102404.95
2019-03-28T15:19:40.627Z,102400.07
2019-03-28T15:22:09.205Z,102399.00
2019-03-28T15:24:37.806Z,102399.50
2019-03-28T15:27:06.466Z,102400.69
2019-03-28T15:29:35.080Z,102398.74
2019-03-28T15:32:03.659Z,102403.09
2019-03-28T15:34:32.236Z,102402.61
2019-03-28T15:37:00.847Z,102398.39
2019-03-28T15:39:29.732Z,102404.56
2019-03-28T15:41:58.316Z,102407.45
2019-03-28T15:44:27.095Z,102409.58
2019-03-28T15:46:55.678Z,102406.20
2019-03-28T15:49:24.428Z,102404.08
2019-03-28T15:51:53.006Z,102405.91
2019-03-28T15:54:21.834Z,102402.40
2019-03-28T15:56:50.468Z,102405.28
2019-03-28T15:59:19.347Z,102393.93
2019-03-28T16:01:48.017Z,102399.14
2019-03-28T16:04:16.614Z,102391.43
2019-03-28T16:06:45.534Z,102396.05
2019-03-28T16:09:14.139Z,102400.83
2019-03-28T16:11:42.734Z,102399.30
2019-03-28T16:14:11.320Z,102398.89
2019-03-28T16:16:39.904Z,102402.64
2019-03-28T16:19:08.481Z,102403.70
2019-03-28T16:21:37.084Z,102396.50
2019-03-28T16:24:05.664Z,102397.91
2019-03-28T16:26:34.723Z,102397.62
2019-03-28T16:29:03.307Z,102398.78
2019-03-28T16:31:32.094Z,102398.86
2019-03-28T16:34:07.198Z,102392.82
2019-03-28T16:36:32.149Z,102395.22
2019-03-28T16:39:00.755Z,102399.33
2019-03-28T16:41:29.335Z,102398.09
2019-03-28T16:43:58.333Z,102397.69
2019-03-28T16:46:27.004Z,102401.33
2019-03-28T16:48:55.597Z,102399.62
2019-03-28T16:51:24.215Z,102396.16
2019-03-28T16:53:52.830Z,102396.63
2019-03-28T16:56:23.061Z,102390.96
2019-03-28T16:58:51.581Z,102397.69
2019-03-28T17:01:20.162Z,102394.59
2019-03-28T17:03:49.015Z,102393.83
2019-03-28T17:06:17.809Z,102397.47
2019-03-28T17:08:47.826Z,102398.45
2019-03-28T17:11:16.932Z,102396.00
2019-03-28T17:13:46.421Z,102401.20
2019-03-28T17:16:15.202Z,102401.66
2019-03-28T17:18:43.899Z,102396.06
2019-03-28T17:21:13.679Z,102399.23
2019-03-28T17:23:42.421Z,102403.06
2019-03-28T17:26:11.114Z,102407.75
2019-03-28T17:28:39.830Z,102403.89
2019-03-28T17:31:08.574Z,102408.67
2019-03-28T17:33:37.156Z,102408.67
2019-03-28T17:36:06.206Z,102410.59
2019-03-28T17:38:34.822Z,102408.95
2019-03-28T17:41:06.357Z,102411.41
2019-03-28T17:43:33.744Z,102409.41
2019-03-28T17:46:02.849Z,102403.80
2019-03-28T17:48:31.480Z,102403.09
2019-03-28T17:51:00.237Z,102404.72
2019-03-28T18:00:50.498Z,102409.77
2019-03-28T18:03:30.448Z,102413.89
2019-03-28T18:05:58.019Z,102410.91
2019-03-28T18:08:20.452Z,102405.70
2019-03-28T18:10:49.029Z,102405.03
2019-03-28T18:13:17.758Z,102408.72
2019-03-28T18:15:46.360Z,102413.79
2019-03-28T18:18:15.038Z,102414.36
2019-03-28T18:20:43.928Z,102412.70
2019-03-28T18:23:12.503Z,102407.03
2019-03-28T18:25:41.130Z,102416.03
2019-03-28T18:28:09.934Z,102411.62
2019-03-28T18:30:38.671Z,102412.16
2019-03-28T18:33:07.284Z,102416.70
2019-03-28T18:35:35.868Z,102419.08
2019-03-28T18:38:04.551Z,102423.64
2019-03-28T18:40:33.152Z,102422.45
2019-03-28T18:43:01.780Z,102419.56
2019-03-28T18:45:30.769Z,102417.98
2019-03-28T18:47:59.650Z,102417.77
2019-03-28T18:50:28.307Z,102415.31
2019-03-28T18:52:56.893Z,102414.16
2019-03-28T18:55:25.753Z,102408.08
2019-03-28T18:57:54.386Z,102410.36
2019-03-28T19:04:03.619Z,102407.16
2019-03-28T19:06:32.330Z,102409.03
2019-03-28T19:09:00.983Z,102405.27
2019-03-28T19:11:29.942Z,102405.20
2019-03-28T19:13:58.574Z,102407.73
2019-03-28T19:16:27.232Z,102407.95
2019-03-28T19:18:56.281Z,102406.70
2019-03-28T19:21:24.909Z,102406.08
2019-03-28T19:23:53.626Z,102405.45
2019-03-28T19:26:22.513Z,102398.09
2019-03-28T19:28:51.110Z,102410.25
2019-03-28T19:31:19.836Z,102404.01
2019-03-28T19:33:48.601Z,102404.01
2019-03-28T19:36:17.508Z,102408.03
2019-03-28T19:38:47.311Z,102404.94
2019-03-28T19:41:15.934Z,102403.78
2019-03-28T19:43:44.595Z,102407.55
2019-03-28T19:46:13.402Z,102406.30
2019-03-28T19:48:42.243Z,102406.30
2019-03-28T19:51:11.330Z,102406.81
2019-03-28T19:53:40.156Z,102403.36
2019-03-28T19:56:08.800Z,102406.59
2019-03-28T19:58:37.637Z,102409.39
2019-03-28T20:01:06.278Z,102410.09
2019-03-28T20:03:34.959Z,102409.98
2019-03-28T20:06:03.650Z,102409.81
2019-03-28T20:08:32.260Z,102404.38
2019-03-28T20:11:00.840Z,102410.02
2019-03-28T20:13:31.050Z,102409.84
2019-03-28T20:16:00.286Z,102409.20
2019-03-28T20:18:28.941Z,102412.17
2019-03-28T20:20:57.526Z,102410.33
2019-03-28T20:23:26.380Z,102409.27
2019-03-28T20:25:54.974Z,102409.09
2019-03-28T20:28:26.565Z,102408.53
2019-03-28T20:30:54.359Z,102406.92
2019-03-28T20:33:25.031Z,102410.70
2019-03-28T20:36:11.714Z,102412.17
2019-03-28T20:38:23.617Z,102415.78
2019-03-28T20:40:52.201Z,102421.12
2019-03-28T20:43:20.903Z,102415.86
2019-03-28T20:45:49.571Z,102414.06
2019-03-28T20:48:18.187Z,102417.98
2019-03-28T20:50:46.829Z,102414.77
2019-03-28T20:53:15.648Z,102416.10
2019-03-28T20:55:44.301Z,102418.31
2019-03-28T20:58:12.893Z,102413.84
2019-03-28T21:00:44.199Z,102420.12
2019-03-28T21:03:12.993Z,102419.66
2019-03-28T21:05:42.469Z,102414.71
2019-03-28T21:08:11.505Z,102419.05
2019-03-28T21:10:40.116Z,102410.06
2019-03-28T21:13:09.738Z,102417.58
2019-03-28T21:15:38.609Z,102418.97
2019-03-28T21:18:07.391Z,102421.73
2019-03-28T21:20:36.194Z,102421.73
2019-03-28T21:23:05.585Z,102418.64
2019-03-28T21:25:34.551Z,102423.94
2019-03-28T21:28:03.133Z,102419.78
2019-03-28T21:30:31.994Z,102427.32
2019-03-28T21:33:00.573Z,102425.98
2019-03-28T21:35:29.312Z,102428.66
2019-03-28T21:37:57.964Z,102434.51
2019-03-28T21:40:27.668Z,102431.28
2019-03-28T21:42:56.374Z,102427.59
2019-03-28T21:45:25.024Z,102432.86
2019-03-28T21:47:53.611Z,102431.47
2019-03-28T21:50:22.191Z,102436.83
2019-03-28T21:52:50.775Z,102437.15
2019-03-28T21:55:19.672Z,102427.37
2019-03-28T21:57:48.271Z,102427.83
2019-03-28T22:00:18.033Z,102430.51
2019-03-28T22:02:46.776Z,102419.75
2019-03-28T22:05:16.096Z,102420.16
2019-03-28T22:07:44.706Z,102418.28
2019-03-28T22:10:13.399Z,102425.97
2019-03-28T22:12:42.152Z,102413.73
2019-03-28T22:15:11.492Z,102416.80
2019-03-28T22:17:40.238Z,102418.55
2019-03-28T22:20:08.997Z,102421.62
2019-03-28T22:22:37.608Z,102425.60
2019-03-28T22:25:09.335Z,102428.19
2019-03-28T22:27:37.953Z,102424.61
2019-03-28T22:30:08.944Z,102418.73
2019-03-28T22:32:37.930Z,102422.52
2019-03-28T22:35:08.216Z,102425.91
2019-03-28T22:37:36.798Z,102422.09
2019-03-28T22:40:11.739Z,102419.18
2019-03-28T22:42:38.759Z,102419.34
2019-03-28T22:45:08.935Z,102425.63
2019-03-28T22:47:37.513Z,102426.56
2019-03-28T22:50:06.929Z,102420.45
2019-03-28T22:52:35.876Z,102420.44
2019-03-28T22:55:07.542Z,102424.87
2019-03-28T22:57:36.159Z,102422.59
2019-03-28T23:00:07.661Z,102426.49
2019-03-28T23:02:36.362Z,102424.57
2019-03-28T23:05:06.038Z,102424.88
2019-03-28T23:07:34.927Z,102422.89
2019-03-28T23:10:04.736Z,102424.05
2019-03-28T23:12:34.110Z,102424.27
2019-03-28T23:15:04.519Z,102427.16
2019-03-28T23:17:33.126Z,102426.50
2019-03-28T23:20:01.822Z,102434.66
2019-03-28T23:22:30.687Z,102425.98
2019-03-28T23:24:59.296Z,102429.23
2019-03-28T23:27:28.025Z,102421.43
2019-03-28T23:29:56.656Z,102427.34
2019-03-28T23:32:25.775Z,102418.19
2019-03-28T23:34:55.007Z,102420.50
2019-03-28T23:37:25.035Z,102418.36
2019-03-28T23:39:53.952Z,102410.92
2019-03-28T23:42:22.540Z,102406.98
2019-03-28T23:44:51.039Z,102407.02
2019-03-28T23:47:19.616Z,102408.85
2019-03-28T23:49:48.253Z,102405.41
2019-03-28T23:52:16.992Z,102409.95
2019-03-28T23:54:46.188Z,102405.60
2019-03-28T23:57:14.800Z,102407.86
2019-03-28T23:59:43.418Z,102415.06
